createdAt,value
2018-01-11T00:06:48.394Z,88
2018-01-11T00:17:02.192Z,87.5
2018-01-11T00:27:16.546Z,83.8
2018-01-11T00:37:30.413Z,85.7
2018-01-11T00:47:45.918Z,81.7
2018-01-11T00:58:01.343Z,82.6
2018-01-11T01:08:16.909Z,85.1
2018-01-11T01:18:31.333Z,86.3
2018-01-11T01:28:45.719Z,86.1
2018-01-11T01:39:01.265Z,84.8
2018-01-11T01:49:15.102Z,83.5
2018-01-11T01:59:28.999Z,81.5
2018-01-11T02:09:43.598Z,80
2018-01-11T02:19:57.596Z,78.6
2018-01-11T02:30:12.535Z,78.9
2018-01-11T02:40:27.366Z,81.8
2018-01-11T02:50:42.359Z,81.9
2018-01-11T03:00:57.113Z,80.9
2018-01-11T03:11:12.551Z,79.2
2018-01-11T03:21:27.691Z,76.6
2018-01-11T03:31:42.362Z,76.5
2018-01-11T03:41:56.276Z,76.3
2018-01-11T03:52:11.602Z,74.3
2018-01-11T04:02:25.306Z,73.7
2018-01-11T04:12:40.932Z,72.8
2018-01-11T04:22:56.199Z,71.9
2018-01-11T04:33:09.881Z,70.2
2018-01-11T04:43:25.459Z,70.7
2018-01-11T04:53:39.966Z,68.7
2018-01-11T05:03:55.432Z,67.4
2018-01-11T05:14:09.629Z,66.2
2018-01-11T05:24:25.045Z,64.7
2018-01-11T05:34:40.439Z,63.3
2018-01-11T05:44:55.341Z,61.9
2018-01-11T05:55:09.226Z,61.6
2018-01-11T06:05:23.275Z,61.4
2018-01-11T06:15:37.773Z,61.2
2018-01-11T06:25:52.982Z,60.8
2018-01-11T06:36:08.622Z,60.3
2018-01-11T06:46:22.590Z,59.5
2018-01-11T06:56:37.753Z,61.7
2018-01-11T07:06:52.900Z,61.8
2018-01-11T07:17:08.430Z,61.8
2018-01-11T07:27:22.067Z,60.7
2018-01-11T07:37:37.116Z,60.6
2018-01-11T07:47:52.187Z,60.8
2018-01-11T07:58:07.677Z,60.5
2018-01-11T08:08:22.908Z,63.4
2018-01-11T08:18:37.746Z,63.7
2018-01-11T08:28:52.273Z,64
2018-01-11T08:39:06.635Z,65
2018-01-11T08:49:21.822Z,65.3
2018-01-11T08:59:36.336Z,69.6
2018-01-11T09:09:51.918Z,71.4
2018-01-11T09:20:06.959Z,77.5
2018-01-11T09:30:22.088Z,81.3
2018-01-11T09:40:35.880Z,89.4
2018-01-11T09:50:50.025Z,97.2
2018-01-11T10:01:03.834Z,100
2018-01-11T10:11:18.860Z,100
2018-01-11T10:21:33.964Z,100
2018-01-11T10:31:49.106Z,100
2018-01-11T10:42:04.782Z,100
2018-01-11T10:52:20.047Z,100
2018-01-11T11:02:33.912Z,100
2018-01-11T11:12:48.781Z,100
2018-01-11T11:23:03.243Z,100
2018-01-11T11:33:17.284Z,100
2018-01-11T11:43:32.678Z,100
2018-01-11T11:53:47.536Z,100
2018-01-11T12:04:01.665Z,100
2018-01-11T12:14:16.207Z,100
2018-01-11T12:24:30.731Z,100
2018-01-11T12:34:45.391Z,100
2018-01-11T12:45:00.105Z,100
2018-01-11T12:55:14.098Z,100
2018-01-11T13:05:28.250Z,100
2018-01-11T13:15:42.278Z,100
2018-01-11T13:25:56.966Z,100
2018-01-11T13:36:10.960Z,100
2018-01-11T13:46:26.576Z,100
2018-01-11T13:56:40.324Z,100
2018-01-11T14:06:55.953Z,100
2018-01-11T14:17:11.554Z,100
2018-01-11T14:27:26.276Z,100
2018-01-11T14:37:41.373Z,100
2018-01-11T14:47:55.109Z,100
2018-01-11T14:58:09.487Z,98.7
2018-01-11T15:08:24.201Z,97.3
2018-01-11T15:18:38.388Z,96.5
2018-01-11T15:28:54.125Z,95.8
2018-01-11T15:39:08.952Z,96.4
2018-01-11T15:49:24.109Z,96.7
2018-01-11T15:59:38.029Z,95.2
2018-01-11T16:09:53.504Z,94.2
2018-01-11T16:20:07.601Z,91.7
2018-01-11T16:30:22.108Z,88.7
2018-01-11T16:40:37.416Z,85.9
2018-01-11T16:50:52.867Z,85.7
2018-01-11T17:01:07.021Z,85.1
2018-01-11T17:11:21.641Z,83.8
2018-01-11T17:21:37.213Z,84.1
2018-01-11T17:31:52.435Z,83.5
2018-01-11T17:42:07.283Z,83.1
2018-01-11T17:52:20.920Z,82.6
2018-01-11T18:02:34.919Z,82
2018-01-11T18:12:49.961Z,80.7
2018-01-11T18:23:04.650Z,80.6
2018-01-11T18:33:19.298Z,78.9
2018-01-11T18:43:34.616Z,77.5
2018-01-11T18:53:48.925Z,77
2018-01-11T19:04:03.457Z,76.9
2018-01-11T19:14:17.671Z,71.7
2018-01-11T19:24:33.265Z,70
2018-01-11T19:34:48.426Z,68.9
2018-01-11T19:45:04.091Z,66.6
2018-01-11T19:55:19.255Z,64.4
2018-01-11T20:05:32.941Z,63
2018-01-11T20:15:47.456Z,61.7
2018-01-11T20:26:01.956Z,60.4
2018-01-11T20:36:17.323Z,59.4
2018-01-11T20:46:31.201Z,57.3
2018-01-11T20:56:45.572Z,56.7
2018-01-11T21:07:00.985Z,56
2018-01-11T21:17:16.393Z,55.8
2018-01-11T21:27:30.613Z,55.2
2018-01-11T21:37:45.897Z,54.9
2018-01-11T21:47:59.636Z,54.4
2018-01-11T21:58:13.298Z,53.8
2018-01-11T22:08:27.159Z,54.2
2018-01-11T22:18:41.088Z,54
2018-01-11T22:28:55.944Z,53.6
2018-01-11T22:39:10.424Z,53.4
2018-01-11T22:49:24.622Z,53.5
2018-01-11T22:59:38.950Z,53.5
2018-01-11T23:09:53.558Z,53.6
2018-01-11T23:20:08.335Z,54
2018-01-11T23:30:23.461Z,54.1
2018-01-11T23:40:37.421Z,54.3
2018-01-11T23:50:52.056Z,54.1
